.
WxDataArchive / Data Records for 2010-10-12
2010-10-11 October 2010 2010-10-13

Data Records for Tuesday, 12 October 2010

Time	Temp	Chill	HIndex	Humid	Dewpt	 Wind 	HiWind	WindDir	Rain 	Barom 
-----	----	-----	------	-----	-----	------	------	-------	-----	----- 
00:00	57.2	57.2	57.2	74	49.0	0	0	---	0.00	29.820 
00:05	57.0	57.0	57.0	74	48.8	0	0	---	0.00	29.820 
00:10	56.7	56.7	56.7	74	48.5	0	0	---	0.00	29.820 
00:15	56.6	56.6	56.6	75	48.8	0	0	---	0.00	29.820 
00:20	56.3	56.3	56.3	76	48.8	0	0	---	0.00	29.820 
00:25	56.2	56.2	56.2	77	49.1	0	0	---	0.00	29.820 
00:30	55.9	55.9	55.9	77	48.8	0	0	---	0.00	29.823 
00:35	55.7	55.7	55.7	77	48.6	0	0	---	0.00	29.823 
00:40	55.6	55.6	55.6	78	48.8	0	0	---	0.00	29.823 
00:45	55.4	55.4	55.4	78	48.7	0	0	---	0.00	29.826 
00:50	55.3	55.3	55.3	79	48.9	0	0	---	0.00	29.826 
00:55	55.1	55.1	55.1	79	48.7	0	0	---	0.00	29.826 
01:00	55.0	55.0	55.0	79	48.6	0	0	---	0.00	29.828 
01:05	54.8	54.8	54.8	80	48.7	0	0	---	0.00	29.828 
01:10	54.7	54.7	54.7	81	49.0	0	0	---	0.00	29.828 
01:15	54.5	54.5	54.5	82	49.1	0	0	---	0.00	29.832 
01:20	54.4	54.4	54.4	82	49.0	0	0	---	0.00	29.832 
01:25	54.2	54.2	54.2	83	49.1	0	0	---	0.00	29.832 
01:30	54.1	54.1	54.1	83	49.1	0	0	---	0.00	29.833 
01:35	54.1	54.1	54.1	83	49.1	0	0	---	0.00	29.833 
01:40	53.9	53.9	53.9	83	48.9	0	0	---	0.00	29.833 
01:45	53.8	53.8	53.8	83	48.8	0	0	---	0.00	29.832 
01:50	53.6	53.6	53.6	84	48.9	0	0	---	0.00	29.832 
01:55	53.6	53.6	53.6	84	48.9	0	0	---	0.00	29.832 
02:00	53.5	53.5	53.5	84	48.8	0	0	---	0.00	29.832 
02:05	53.3	53.3	53.3	84	48.6	0	0	---	0.00	29.832 
02:10	53.2	53.2	53.2	84	48.5	0	0	---	0.00	29.832 
02:15	53.1	53.1	53.1	85	48.7	0	0	---	0.00	29.834 
02:20	53.1	53.1	53.1	85	48.7	0	0	---	0.00	29.834 
02:25	52.9	52.9	52.9	85	48.5	0	0	---	0.00	29.834 
02:30	52.8	52.8	52.8	85	48.4	0	0	---	0.00	29.839 
02:35	52.8	52.8	52.8	86	48.7	0	0	---	0.00	29.839 
02:40	52.6	52.6	52.6	86	48.5	0	0	---	0.00	29.839 
02:45	52.6	52.6	52.6	86	48.5	0	0	---	0.00	29.840 
02:50	52.5	52.5	52.5	86	48.4	0	0	---	0.00	29.840 
02:55	52.5	52.5	52.5	86	48.4	0	0	---	0.00	29.840 
03:00	52.3	52.3	52.3	87	48.5	0	0	---	0.00	29.847 
03:05	52.2	52.2	52.2	87	48.4	0	0	---	0.00	29.847 
03:10	52.2	52.2	52.2	87	48.4	0	0	---	0.00	29.847 
03:15	52.0	52.0	52.0	87	48.3	0	0	---	0.00	29.848 
03:20	51.9	51.9	51.9	87	48.2	0	0	---	0.00	29.848 
03:25	51.9	51.9	51.9	87	48.2	0	0	---	0.00	29.848 
03:30	51.7	51.7	51.7	88	48.3	0	0	---	0.00	29.848 
03:35	51.7	51.7	51.7	88	48.3	0	0	---	0.00	29.848 
03:40	51.6	51.6	51.6	88	48.2	0	0	---	0.00	29.848 
03:45	51.6	51.6	51.6	88	48.2	0	0	---	0.00	29.850 
03:50	51.6	51.6	51.6	88	48.2	0	0	---	0.00	29.850 
03:55	51.6	51.6	51.6	88	48.2	0	0	---	0.00	29.850 
04:00	51.6	51.6	51.6	89	48.5	0	0	---	0.00	29.852 
04:05	51.6	51.6	51.6	89	48.5	0	0	---	0.00	29.852 
04:10	51.6	51.6	51.6	89	48.5	0	0	---	0.00	29.852 
04:15	51.6	51.6	51.6	89	48.5	0	0	---	0.00	29.856 
04:20	51.6	51.6	51.6	89	48.5	0	0	---	0.00	29.856 
04:25	51.6	51.6	51.6	89	48.5	0	0	---	0.00	29.856 
04:30	51.6	51.6	51.6	89	48.5	0	0	---	0.00	29.860 
04:35	51.6	51.6	51.6	89	48.5	0	0	---	0.00	29.860 
04:40	51.4	51.4	51.4	89	48.3	0	0	---	0.00	29.860 
04:45	51.4	51.4	51.4	90	48.6	0	0	---	0.00	29.863 
04:50	51.4	51.4	51.4	90	48.6	0	0	---	0.00	29.863 
04:55	51.4	51.4	51.4	90	48.6	0	0	---	0.00	29.863 
05:00	51.3	51.3	51.3	90	48.5	0	0	---	0.00	29.867 
05:05	51.6	51.6	51.6	92	49.4	0	2	315	0.00	29.867 
05:10	52.5	52.5	52.5	92	50.2	0	1	315	0.00	29.867 
05:15	53.5	53.5	53.5	91	50.9	1	3	315	0.00	29.867 
05:20	54.1	54.1	54.1	90	51.2	0	2	90	0.00	29.867 
05:25	54.4	54.4	54.4	89	51.2	1	3	90	0.00	29.867 
05:30	54.5	54.5	54.5	89	51.3	0	2	68	0.00	29.867 
05:35	54.5	54.5	54.5	88	51.0	0	2	68	0.00	29.867 
05:40	54.5	54.5	54.5	89	51.3	0	2	68	0.00	29.867 
05:45	54.5	54.5	54.5	89	51.3	0	2	68	0.00	29.867 
05:50	54.4	54.4	54.4	89	51.2	0	2	68	0.00	29.867 
05:55	54.2	54.2	54.2	88	50.7	0	0	---	0.00	29.867 
06:00	53.9	53.9	53.9	89	50.7	0	0	---	0.00	29.872 
06:05	53.8	53.8	53.8	89	50.6	0	0	---	0.00	29.872 
06:10	53.5	53.5	53.5	89	50.3	0	0	---	0.00	29.872 
06:15	53.3	53.3	53.3	89	50.1	0	0	---	0.00	29.879 
06:20	53.1	53.1	53.1	89	49.9	0	0	---	0.00	29.879 
06:25	52.8	52.8	52.8	89	49.6	0	0	---	0.00	29.879 
06:30	52.6	52.6	52.6	89	49.4	0	0	---	0.00	29.882 
06:35	52.5	52.5	52.5	89	49.4	0	0	---	0.00	29.882 
06:40	52.2	52.2	52.2	90	49.4	0	0	---	0.00	29.882 
06:45	52.0	52.0	52.0	90	49.2	0	0	---	0.00	29.887 
06:50	51.9	51.9	51.9	90	49.1	0	0	---	0.00	29.887 
06:55	51.7	51.7	51.7	91	49.2	0	0	---	0.00	29.887 
07:00	51.7	51.7	51.7	91	49.2	0	0	---	0.00	29.889 
07:05	51.7	51.7	51.7	91	49.2	0	0	---	0.00	29.889 
07:10	51.9	51.9	51.9	92	49.6	0	2	68	0.00	29.889 
07:15	52.5	52.5	52.5	93	50.5	0	2	68	0.00	29.895 
07:20	52.9	52.9	52.9	93	50.9	1	4	68	0.00	29.895 
07:25	53.2	53.2	53.2	93	51.2	2	4	90	0.00	29.895 
07:30	53.3	53.3	53.3	93	51.3	0	2	90	0.00	29.901 
07:35	53.5	53.5	53.5	94	51.8	1	5	112	0.00	29.901 
07:40	53.6	53.6	53.6	94	51.9	2	6	90	0.00	29.901 
07:45	53.6	53.6	53.6	94	51.9	1	6	112	0.00	29.903 
07:50	53.6	53.6	53.6	94	51.9	1	7	90	0.00	29.903 
07:55	53.6	53.6	53.6	94	51.9	2	4	90	0.00	29.903 
08:00	53.5	53.5	53.5	95	52.1	2	4	90	0.00	29.906 
08:05	53.5	53.5	53.5	95	52.1	2	7	112	0.00	29.906 
08:10	53.5	53.5	53.5	95	52.1	1	6	90	0.00	29.906 
08:15	53.5	53.5	53.5	95	52.1	2	5	90	0.00	29.912 
08:20	53.3	53.3	53.3	95	51.9	2	5	90	0.00	29.912 
08:25	53.3	53.3	53.3	95	51.9	1	4	112	0.00	29.912 
08:30	53.5	53.5	53.5	95	52.1	1	5	68	0.00	29.921 
08:35	53.5	53.5	53.5	95	52.1	1	3	68	0.00	29.921 
08:40	53.5	53.5	53.5	95	52.1	2	6	112	0.00	29.921 
08:45	53.5	53.5	53.5	95	52.1	2	5	112	0.00	29.926 
08:50	53.5	53.5	53.5	95	52.1	0	2	112	0.00	29.926 
08:55	53.5	53.5	53.5	95	52.1	1	4	112	0.00	29.926 
09:00	53.5	53.5	53.5	95	52.1	2	4	90	0.00	29.928 
09:05	53.5	53.5	53.5	95	52.1	1	4	90	0.00	29.928 
09:10	53.5	53.5	53.5	95	52.1	1	3	112	0.00	29.928 
09:15	53.6	53.6	53.6	95	52.2	1	3	112	0.00	29.938 
09:20	53.6	53.6	53.6	95	52.2	2	4	112	0.00	29.938 
09:25	53.6	53.6	53.6	95	52.2	1	5	112	0.00	29.938 
09:30	53.6	53.6	53.6	94	51.9	2	5	68	0.00	29.943 
09:35	53.8	53.8	53.8	94	52.1	1	3	90	0.00	29.943 
09:40	53.9	53.9	53.9	94	52.2	2	5	90	0.00	29.943 
09:45	54.1	54.1	54.1	93	52.1	2	5	90	0.00	29.942 
09:50	54.2	54.2	54.2	92	51.9	1	5	90	0.00	29.942 
09:55	54.2	54.2	54.2	92	51.9	2	5	90	0.00	29.942 
10:00	54.5	54.5	54.5	91	51.9	1	4	90	0.00	29.948 
10:05	54.8	54.8	54.8	90	51.9	2	6	112	0.00	29.948 
10:10	55.1	55.1	55.1	89	51.9	2	5	112	0.00	29.948 
10:15	55.3	55.3	55.3	87	51.5	2	7	112	0.00	29.955 
10:20	55.6	55.6	55.6	86	51.5	1	6	90	0.00	29.955 
10:25	55.7	55.7	55.7	85	51.3	2	5	90	0.00	29.955 
10:30	56.2	56.2	56.2	85	51.7	2	6	90	0.00	29.955 
10:35	56.7	56.7	56.7	83	51.6	3	7	112	0.00	29.955 
10:40	57.3	57.3	57.3	81	51.5	2	6	68	0.00	29.955 
10:45	58.0	58.0	58.0	81	52.2	0	3	68	0.00	29.953 
10:50	58.4	58.4	58.4	78	51.6	2	7	90	0.00	29.953 
10:55	58.9	58.9	58.9	78	52.0	1	3	90	0.00	29.953 
11:00	59.5	59.5	59.5	77	52.3	1	3	68	0.00	29.955 
11:05	59.9	59.9	59.9	75	52.0	1	5	90	0.00	29.955 
11:10	59.9	59.9	59.9	75	52.0	2	5	112	0.00	29.955 
11:15	59.9	59.9	59.9	74	51.6	3	6	90	0.00	29.959 
11:20	60.1	60.1	60.1	74	51.8	1	5	90	0.00	29.959 
11:25	60.1	60.1	60.1	74	51.8	2	6	90	0.00	29.959 
11:30	60.1	60.1	60.1	73	51.4	2	4	90	0.00	29.960 
11:35	60.2	60.2	60.2	74	51.9	1	4	90	0.00	29.960 
11:40	60.7	60.7	60.7	72	51.6	2	4	90	0.00	29.960 
11:45	61.2	61.2	61.2	71	51.7	1	6	112	0.00	29.959 
11:50	61.5	61.5	61.5	71	52.0	1	4	112	0.00	29.959 
11:55	62.1	62.1	62.1	70	52.2	1	3	90	0.00	29.959 
12:00	62.4	62.4	62.4	69	52.1	2	6	68	0.00	29.958 
12:05	62.9	62.9	62.9	68	52.2	1	3	90	0.00	29.958 
12:10	63.4	63.4	63.4	68	52.6	1	4	90	0.00	29.958 
12:15	63.7	63.7	63.7	66	52.1	1	3	90	0.00	29.958 
12:20	63.9	63.9	63.9	66	52.3	1	5	90	0.00	29.958 
12:25	64.3	64.3	64.3	65	52.3	0	3	90	0.00	29.958 
12:30	64.7	64.7	64.7	63	51.8	1	3	90	0.00	29.956 
12:35	65.2	65.2	65.2	62	51.8	1	4	112	0.00	29.956 
12:40	65.3	65.3	65.3	63	52.4	1	3	112	0.00	29.956 
12:45	66.0	66.0	66.0	60	51.7	0	2	68	0.00	29.955 
12:50	66.6	66.6	66.6	59	51.8	0	2	112	0.00	29.955 
12:55	66.9	66.9	66.9	59	52.1	1	4	90	0.00	29.955 
13:00	67.4	67.4	67.4	58	52.1	1	3	90	0.00	29.952 
13:05	67.6	67.6	67.6	56	51.3	1	5	90	0.00	29.952 
13:10	67.6	67.6	67.6	56	51.3	1	3	90	0.00	29.952 
13:15	67.6	67.6	67.6	56	51.3	1	4	90	0.00	29.946 
13:20	67.8	67.8	67.8	55	51.0	1	3	90	0.00	29.946 
13:25	68.1	68.1	68.1	54	50.8	0	3	135	0.00	29.946 
13:30	68.4	68.4	68.4	54	51.1	1	4	90	0.00	29.943 
13:35	68.6	68.6	68.6	54	51.3	1	4	90	0.00	29.943 
13:40	68.8	68.8	68.8	54	51.5	1	4	90	0.00	29.943 
13:45	68.9	68.9	68.9	53	51.1	1	4	90	0.00	29.942 
13:50	69.1	69.1	69.1	53	51.2	1	4	90	0.00	29.942 
13:55	69.3	69.3	69.3	53	51.4	1	3	90	0.00	29.942 
14:00	69.6	69.6	69.6	53	51.7	1	4	90	0.00	29.939 
14:05	69.9	69.9	69.9	51	50.9	0	2	90	0.00	29.939 
14:10	70.3	70.3	70.3	51	51.3	0	3	90	0.00	29.939 
14:15	70.1	70.1	70.1	51	51.1	1	4	90	0.00	29.938 
14:20	70.1	70.1	70.1	50	50.6	2	4	112	0.00	29.938 
14:25	70.4	70.4	70.4	50	50.9	1	5	112	0.00	29.938 
14:30	70.4	70.4	70.4	50	50.9	1	6	90	0.00	29.937 
14:35	70.6	70.6	70.6	50	51.0	1	4	90	0.00	29.937 
14:40	70.6	70.6	70.6	50	51.0	1	3	90	0.00	29.937 
14:45	70.8	70.8	70.8	49	50.7	1	5	90	0.00	29.935 
14:50	70.9	70.9	70.9	49	50.8	1	3	90	0.00	29.935 
14:55	70.9	70.9	70.9	48	50.2	1	4	112	0.00	29.935 
15:00	71.3	71.3	71.3	48	50.6	1	4	112	0.00	29.931 
15:05	71.1	71.1	71.1	47	49.8	1	3	68	0.00	29.931 
15:10	71.1	71.1	71.1	46	49.3	2	5	90	0.00	29.931 
15:15	71.1	71.1	71.1	48	50.4	2	6	90	0.00	29.928 
15:20	71.1	71.1	71.1	47	49.8	2	7	90	0.00	29.928 
15:25	71.1	71.1	71.1	47	49.8	1	4	90	0.00	29.928 
15:30	71.3	71.3	71.3	47	50.0	1	3	112	0.00	29.930 
15:35	71.5	71.5	71.5	46	49.6	0	2	112	0.00	29.930 
15:40	71.8	71.8	71.8	46	49.9	1	4	45	0.00	29.930 
15:45	71.8	71.8	71.8	46	49.9	2	5	90	0.00	29.927 
15:50	71.8	71.8	71.8	47	50.5	2	5	112	0.00	29.927 
15:55	71.8	71.8	71.8	45	49.3	1	4	112	0.00	29.927 
16:00	72.0	72.0	72.0	46	50.1	1	5	90	0.00	29.927 
16:05	72.1	72.1	72.1	45	49.6	0	4	90	0.00	29.927 
16:10	72.3	72.3	72.3	44	49.2	0	3	90	0.00	29.927 
16:15	72.3	72.3	72.3	44	49.2	1	3	90	0.00	29.930 
16:20	72.3	72.3	72.3	45	49.8	0	2	90	0.00	29.930 
16:25	72.3	72.3	72.3	44	49.2	1	3	90	0.00	29.930 
16:30	72.3	72.3	72.3	45	49.8	0	1	90	0.00	29.930 
16:35	72.1	72.1	72.1	44	49.0	1	5	90	0.00	29.930 
16:40	72.1	72.1	72.1	45	49.6	0	3	90	0.00	29.930 
16:45	72.1	72.1	72.1	45	49.6	1	4	90	0.00	29.928 
16:50	72.0	72.0	72.0	46	50.1	1	4	90	0.00	29.928 
16:55	71.8	71.8	71.8	46	49.9	1	4	112	0.00	29.928 
17:00	71.8	71.8	71.8	45	49.3	0	2	112	0.00	29.926 
17:05	71.6	71.6	71.6	45	49.1	1	3	112	0.00	29.926 
17:10	71.6	71.6	71.6	45	49.1	2	5	112	0.00	29.926 
17:15	71.5	71.5	71.5	46	49.6	1	4	90	0.00	29.923 
17:20	71.5	71.5	71.5	45	49.0	1	5	90	0.00	29.923 
17:25	71.5	71.5	71.5	46	49.6	1	3	90	0.00	29.923 
17:30	71.3	71.3	71.3	46	49.4	0	2	90	0.00	29.927 
17:35	71.3	71.3	71.3	46	49.4	1	3	90	0.00	29.927 
17:40	71.1	71.1	71.1	46	49.3	2	4	90	0.00	29.927 
17:45	71.1	71.1	71.1	47	49.8	1	4	90	0.00	29.928 
17:50	71.1	71.1	71.1	46	49.3	1	3	90	0.00	29.928 
17:55	70.9	70.9	70.9	46	49.1	0	2	90	0.00	29.928 
18:00	70.9	70.9	70.9	46	49.1	1	4	90	0.00	29.931 
18:05	70.8	70.8	70.8	47	49.6	1	2	90	0.00	29.931 
18:10	70.8	70.8	70.8	46	49.0	1	3	90	0.00	29.931 
18:15	70.6	70.6	70.6	47	49.4	0	2	90	0.00	29.935 
18:20	70.4	70.4	70.4	47	49.2	1	3	90	0.00	29.935 
18:25	70.3	70.3	70.3	48	49.7	1	4	90	0.00	29.935 
18:30	70.1	70.1	70.1	48	49.5	0	3	90	0.00	29.935 
18:35	69.9	69.9	69.9	49	49.9	0	1	90	0.00	29.935 
18:40	69.6	69.6	69.6	49	49.6	0	1	90	0.00	29.935 
18:45	69.3	69.3	69.3	50	49.8	0	1	90	0.00	29.940 
18:50	68.9	68.9	68.9	50	49.5	0	1	90	0.00	29.940 
18:55	68.6	68.6	68.6	51	49.7	0	1	90	0.00	29.940 
19:00	68.3	68.3	68.3	52	50.0	0	0	---	0.00	29.941 
19:05	67.9	67.9	67.9	52	49.6	0	0	---	0.00	29.941 
19:10	67.4	67.4	67.4	53	49.7	0	0	---	0.00	29.941 
19:15	66.9	66.9	66.9	54	49.7	0	0	---	0.00	29.944 
19:20	66.3	66.3	66.3	55	49.6	0	0	---	0.00	29.944 
19:25	65.8	65.8	65.8	56	49.7	0	0	---	0.00	29.944 
19:30	65.2	65.2	65.2	57	49.6	0	0	---	0.00	29.948 
19:35	64.7	64.7	64.7	58	49.6	0	0	---	0.00	29.948 
19:40	64.2	64.2	64.2	58	49.1	0	0	---	0.00	29.948 
19:45	63.7	63.7	63.7	60	49.5	0	0	---	0.00	29.952 
19:50	63.2	63.2	63.2	62	50.0	0	0	---	0.00	29.952 
19:55	62.7	62.7	62.7	62	49.5	0	0	---	0.00	29.952 
20:00	62.4	62.4	62.4	63	49.6	0	0	---	0.00	29.955 
20:05	62.0	62.0	62.0	64	49.7	0	0	---	0.00	29.955 
20:10	61.5	61.5	61.5	65	49.6	0	0	---	0.00	29.955 
20:15	61.2	61.2	61.2	66	49.7	0	0	---	0.00	29.961 
20:20	60.7	60.7	60.7	66	49.3	0	0	---	0.00	29.961 
20:25	60.4	60.4	60.4	67	49.4	0	0	---	0.00	29.961 
20:30	60.1	60.1	60.1	68	49.5	0	0	---	0.00	29.959 
20:35	59.6	59.6	59.6	69	49.4	0	0	---	0.00	29.959 
20:40	59.5	59.5	59.5	70	49.7	0	0	---	0.00	29.959 
20:45	59.2	59.2	59.2	70	49.4	0	0	---	0.00	29.962 
20:50	59.5	59.5	59.5	68	48.9	0	1	90	0.00	29.962 
20:55	60.1	60.1	60.1	66	48.7	0	2	90	0.00	29.962 
21:00	60.7	60.7	60.7	64	48.4	1	2	90	0.00	29.962 
21:05	61.0	61.0	61.0	64	48.7	0	1	90	0.00	29.962 
21:10	61.2	61.2	61.2	63	48.5	0	2	90	0.00	29.962 
21:15	61.0	61.0	61.0	62	47.9	0	1	90	0.00	29.960 
21:20	60.9	60.9	60.9	62	47.8	0	1	90	0.00	29.960 
21:25	60.7	60.7	60.7	62	47.6	0	1	90	0.00	29.960 
21:30	60.4	60.4	60.4	61	46.9	0	1	90	0.00	29.962 
21:35	60.1	60.1	60.1	61	46.6	0	1	90	0.00	29.962 
21:40	59.9	59.9	59.9	61	46.4	0	1	90	0.00	29.962 
21:45	59.8	59.8	59.8	62	46.8	0	2	90	0.00	29.963 
21:50	59.6	59.6	59.6	62	46.6	0	1	90	0.00	29.963 
21:55	59.3	59.3	59.3	63	46.7	0	1	90	0.00	29.963 
22:00	59.2	59.2	59.2	63	46.6	0	0	---	0.00	29.964 
22:05	58.7	58.7	58.7	63	46.1	0	1	90	0.00	29.964 
22:10	58.4	58.4	58.4	64	46.3	0	1	90	0.00	29.964 
22:15	58.1	58.1	58.1	64	46.0	0	1	90	0.00	29.967 
22:20	57.8	57.8	57.8	65	46.1	0	2	90	0.00	29.967 
22:25	57.6	57.6	57.6	65	45.9	0	2	90	0.00	29.967 
22:30	57.5	57.5	57.5	64	45.4	1	3	90	0.00	29.970 
22:35	57.3	57.3	57.3	64	45.2	0	2	90	0.00	29.970 
22:40	57.2	57.2	57.2	64	45.1	1	3	90	0.00	29.970 
22:45	57.0	57.0	57.0	64	44.9	1	2	90	0.00	29.976 
22:50	56.7	56.7	56.7	64	44.7	0	3	90	0.00	29.976 
22:55	56.6	56.6	56.6	64	44.6	0	1	90	0.00	29.976 
23:00	56.5	56.5	56.5	64	44.5	1	4	112	0.00	29.977 
23:05	56.3	56.3	56.3	64	44.3	0	3	112	0.00	29.977 
23:10	56.0	56.0	56.0	64	44.0	1	3	112	0.00	29.977 
23:15	55.9	55.9	55.9	65	44.3	1	3	112	0.00	29.977 
23:20	55.7	55.7	55.7	65	44.1	1	4	90	0.00	29.977 
23:25	55.6	55.6	55.6	65	44.0	0	2	90	0.00	29.977 
23:30	55.3	55.3	55.3	66	44.1	0	2	90	0.00	29.984 
23:35	55.1	55.1	55.1	66	43.9	0	1	90	0.00	29.984 
23:40	54.8	54.8	54.8	66	43.7	0	2	90	0.00	29.984 
23:45	54.7	54.7	54.7	67	44.0	0	2	90	0.00	29.984 
23:50	54.5	54.5	54.5	67	43.8	0	1	90	0.00	29.984 
23:55	54.4	54.4	54.4	68	44.1	0	1	90	0.00	29.984 

CoCoRaHS
IN-AL-39
A2 Web Hosting
Creative Commons License
GoDaddy
search engine by freefind advanced

loaded 2018-11-13 17:41:41 • last modified 2010-11-18 10:43:29
Privacy PolicyDisclaimer
• wx.awcolley.com is powered by PmWiki v.2002016 •
• all content (unless otherwise noted) © 2018 A W Colley